Classifiche di sempre
Migliori tempi personali validi di team tra tutti gli eventi e le stagioni. Ogni team compare una sola volta per divisione.
Cerca per nome e apri la pagina in cui è classificato questo record di divisione.
13,786 team in classifica
| Pos. | Pos. AG | Team | Nazionalità | Categoria età | TempoMiglior tempo | Distacco |
|---|---|---|---|---|---|---|
| 6276 | -- | Christina Rudderow & Dana ShulmanUSA · W WU29 | USA | W WU29 | 1:19:33 | +25:53 |
| 6277 | -- | Othilie Slos & Agnès GrasFRA · W WU29 | FRA | W WU29 | 1:19:33 | +25:53 |
| 6278 | #2233 | Eszter Kispál & Adrienn BónnyaiHUN · W 30-34 · AG #2233 | HUN | W 30-34 | 1:19:34 | +25:54 |
| 6279 | #2234 | Karina Derbez & Gabriela GarzaMEX · W 30-34 · AG #2234 | MEX | W 30-34 | 1:19:34 | +25:54 |
| 6280 | #2235 | Kaitlyn Pitek & Kacey LeslieCAN · W 30-34 · AG #2235 | CAN | W 30-34 | 1:19:34 | +25:54 |
| 6281 | #899 | Tina Junghanns & Laura EickelmannGER · W 35-39 · AG #899 | GER | W 35-39 | 1:19:34 | +25:54 |
| 6282 | #2237 | Ashleigh Kroeger & Holly MantrippGBR · W 30-34 · AG #2237 | GBR | W 30-34 | 1:19:34 | +25:54 |
| 6283 | #2236 | Vanessa Franco & Elaina WilliamsW 30-34 · AG #2236 | -- | W 30-34 | 1:19:34 | +25:54 |
| 6284 | #938 | Emma Hallas & Sarah WheldonGBR · W 40-44 · AG #938 | GBR | W 40-44 | 1:19:34 | +25:54 |
| 6285 | #939 | Natalie Jones & Jody ShoupUSA · W 40-44 · AG #939 | USA | W 40-44 | 1:19:34 | +25:54 |
| 6286 | #369 | Lucie Ratcliffe & Carys RatcliffeGBR · W 16-24 · AG #369 | GBR | W 16-24 | 1:19:35 | +25:55 |
| 6287 | #940 | Crystal DEIWERT & Jen DELONGUSA · W 40-44 · AG #940 | USA | W 40-44 | 1:19:35 | +25:55 |
| 6288 | #2238 | Maria Inês Nabais & Ines SilverioPOR · W 30-34 · AG #2238 | POR | W 30-34 | 1:19:35 | +25:55 |
| 6289 | #2239 | Kimberly Nguyen & Amelia ColonW 30-34 · AG #2239 | -- | W 30-34 | 1:19:35 | +25:55 |
| 6290 | #1129 | Sabine Hoogveld & Feye KoevoetsNED · W 25-29 · AG #1129 | NED | W 25-29 | 1:19:35 | +25:55 |
| 6291 | #901 | Dania Gonzalez & Claudia ToledoUSA · W 35-39 · AG #901 | USA | W 35-39 | 1:19:36 | +25:56 |
| 6292 | #902 | Lauren Wilson & Kayla WarrenAUS · W 35-39 · AG #902 | AUS | W 35-39 | 1:19:36 | +25:56 |
| 6293 | #2240 | Daniela Charlier & Daniela Charlier & Klaudia Dabrowska & Klaudia DabrowskaGER · W 30-34 · AG #2240 | GER | W 30-34 | 1:19:36 | +25:56 |
| 6294 | #941 | Carrie Barr & Carol CruseGBR · W 40-44 · AG #941 | GBR | W 40-44 | 1:19:36 | +25:56 |
| 6295 | #1131 | Isabel Scott & Alexandra DavisUSA · W 25-29 · AG #1131 | USA | W 25-29 | 1:19:36 | +25:56 |
| 6296 | #195 | Charlotte James & Julie HarrisGBR · W 45-49 · AG #195 | GBR | W 45-49 | 1:19:36 | +25:56 |
| 6297 | #900 | Emma Wakeling & Kelly RolloAUS · W 35-39 · AG #900 | AUS | W 35-39 | 1:19:36 | +25:56 |
| 6298 | #370 | Astin Bidgood & Arlee BidgoodAUS · W 16-24 · AG #370 | AUS | W 16-24 | 1:19:36 | +25:56 |
| 6299 | #2241 | Andrea Torres & silvia ortizESP · W 30-34 · AG #2241 | ESP | W 30-34 | 1:19:37 | +25:57 |
| 6300 | #2242 | Maude Guillou & Elodie DewezBEL · W 30-34 · AG #2242 | BEL | W 30-34 | 1:19:37 | +25:57 |
Pagina 252 di 552